Aviation Digital Data Service (ADDS)

Output produced by METARs form (0555 UTC 30 September 2014)
found at http://aviationweather.gov/adds/metars/
 
KRDU 300536Z 3006/0106 00000KT 6SM BR SCT005 BKN100 
     TEMPO 3006/3009 1SM BR OVC005 
     FM300900 00000KT 1/2SM FG OVC002 
     FM301500 VRB02KT P6SM SCT008 
     FM301800 VRB03KT P6SM SCT035